Time;durP1;ratioP1;P1;durP2;ratioP2;P2;SDS_P1;SDS_P2;PMS_P1;PMS_P2;Temp;Humidity;BMP_temperature;BMP_pressure;BME280_temperature;BME280_humidity;BME280_pressure;Samples;Min_cycle;Max_cycle;Signal;HPM_P1;HPM_P2
2023/11/13 00:02:12;;;;;;;213.88;54.17;;;;;;;;;;5014051;28;20415;-43
2023/11/13 00:04:38;;;;;;;212.73;52.35;;;;;;;;;;5020411;28;20176;-43
2023/11/13 00:07:04;;;;;;;219.37;56.93;;;;;;;;;;5021599;28;20192;-43
2023/11/13 00:09:30;;;;;;;211.73;52.85;;;;;;;;;;5024123;28;20920;-43
2023/11/13 00:11:56;;;;;;;215.20;53.88;;;;;;;;;;5016562;28;20184;-44
2023/11/13 00:14:22;;;;;;;214.40;54.50;;;;;;;;;;5015842;28;20203;-43
2023/11/13 00:16:49;;;;;;;214.77;55.40;;;;;;;;;;5024228;28;20430;-43
2023/11/13 00:19:16;;;;;;;217.05;57.50;;;;;;;;;;5017667;28;20183;-43
2023/11/13 00:21:42;;;;;;;215.38;54.92;;;;;;;;;;5024373;28;20613;-43
2023/11/13 00:24:08;;;;;;;215.57;54.67;;;;;;;;;;5022780;28;20208;-43
2023/11/13 00:26:34;;;;;;;214.65;55.17;;;;;;;;;;5024204;28;20544;-44
2023/11/13 00:29:02;;;;;;;212.55;55.28;;;;;;;;;;5020865;28;20169;-44
2023/11/13 00:31:28;;;;;;;214.20;55.05;;;;;;;;;;5023514;28;20172;-43
2023/11/13 00:33:54;;;;;;;212.40;52.85;;;;;;;;;;5013744;28;20736;-43
2023/11/13 00:36:20;;;;;;;212.57;53.67;;;;;;;;;;5015565;28;20195;-43
2023/11/13 00:38:46;;;;;;;215.45;55.00;;;;;;;;;;5023607;28;20500;-44
2023/11/13 00:41:12;;;;;;;211.63;53.90;;;;;;;;;;5020770;28;20267;-43
2023/11/13 00:43:39;;;;;;;215.02;54.30;;;;;;;;;;5025950;28;20520;-43
2023/11/13 00:46:05;;;;;;;213.95;54.60;;;;;;;;;;5025474;28;20231;-44
2023/11/13 00:48:32;;;;;;;221.20;59.20;;;;;;;;;;5022841;28;20649;-44
2023/11/13 00:50:58;;;;;;;212.32;53.42;;;;;;;;;;5023346;28;20247;-43
2023/11/13 00:53:24;;;;;;;213.93;55.92;;;;;;;;;;5030751;28;20192;-44
2023/11/13 00:55:51;;;;;;;211.70;52.37;;;;;;;;;;5025734;28;20219;-43
2023/11/13 00:58:17;;;;;;;214.73;55.00;;;;;;;;;;5022645;28;20412;-44
2023/11/13 01:00:43;;;;;;;214.13;54.30;;;;;;;;;;5025919;28;20250;-44
2023/11/13 01:03:09;;;;;;;214.30;54.20;;;;;;;;;;5034846;28;20201;-44
2023/11/13 01:05:35;;;;;;;214.17;54.40;;;;;;;;;;5018364;28;20404;-44
2023/11/13 01:08:03;;;;;;;214.38;54.22;;;;;;;;;;5027396;28;20415;-44
2023/11/13 01:10:29;;;;;;;211.80;52.40;;;;;;;;;;5017220;28;20300;-44
2023/11/13 01:12:55;;;;;;;214.70;53.70;;;;;;;;;;5019054;28;20201;-44
2023/11/13 01:15:22;;;;;;;211.23;52.80;;;;;;;;;;5015230;28;20251;-44
2023/11/13 01:17:48;;;;;;;216.18;56.08;;;;;;;;;;5019447;28;20504;-44
2023/11/13 01:20:15;;;;;;;214.40;54.83;;;;;;;;;;5018037;28;20685;-44
2023/11/13 01:22:41;;;;;;;215.05;55.63;;;;;;;;;;5027074;28;20200;-44
2023/11/13 01:25:07;;;;;;;215.98;54.03;;;;;;;;;;5026149;28;20185;-44
2023/11/13 01:27:33;;;;;;;215.65;54.85;;;;;;;;;;5018851;28;20286;-44
2023/11/13 01:29:59;;;;;;;214.48;54.95;;;;;;;;;;5034086;28;20170;-44
2023/11/13 01:32:25;;;;;;;212.50;52.60;;;;;;;;;;5012552;28;20731;-44
2023/11/13 01:34:51;;;;;;;212.10;53.00;;;;;;;;;;5011431;28;20455;-44
2023/11/13 01:37:18;;;;;;;215.07;55.67;;;;;;;;;;5026242;28;20442;-44
2023/11/13 01:39:44;;;;;;;214.57;54.47;;;;;;;;;;5025895;28;20440;-44
2023/11/13 01:42:10;;;;;;;212.73;53.93;;;;;;;;;;5018400;28;20180;-44
2023/11/13 01:44:36;;;;;;;213.67;56.10;;;;;;;;;;5034097;28;20408;-45
2023/11/13 01:47:03;;;;;;;214.37;55.60;;;;;;;;;;5014653;28;20951;-43
2023/11/13 01:49:29;;;;;;;216.00;56.40;;;;;;;;;;5019294;28;20428;-43
2023/11/13 01:51:55;;;;;;;215.90;55.72;;;;;;;;;;5017823;28;20187;-44
2023/11/13 01:54:23;;;;;;;212.20;53.33;;;;;;;;;;5016809;28;20201;-44
2023/11/13 01:56:49;;;;;;;212.98;53.78;;;;;;;;;;5017472;28;20190;-44
2023/11/13 01:59:15;;;;;;;217.20;57.55;;;;;;;;;;5015053;28;20174;-44
2023/11/13 02:01:41;;;;;;;216.60;57.05;;;;;;;;;;5015932;28;20960;-45
2023/11/13 02:04:08;;;;;;;217.93;58.38;;;;;;;;;;5013069;28;20181;-44
2023/11/13 02:06:34;;;;;;;217.63;58.75;;;;;;;;;;5002330;28;20231;-44
2023/11/13 02:09:00;;;;;;;214.32;54.97;;;;;;;;;;5001192;28;20178;-44
2023/11/13 02:11:26;;;;;;;214.97;56.10;;;;;;;;;;5010731;28;20180;-44
2023/11/13 02:13:53;;;;;;;221.73;59.97;;;;;;;;;;5010785;28;20808;-44
2023/11/13 02:16:19;;;;;;;216.07;57.10;;;;;;;;;;5013515;28;20192;-44
2023/11/13 02:18:45;;;;;;;221.50;60.53;;;;;;;;;;4998521;28;20249;-44
2023/11/13 02:21:11;;;;;;;214.48;55.58;;;;;;;;;;5003735;28;20311;-44
2023/11/13 02:23:37;;;;;;;213.60;55.33;;;;;;;;;;5023261;28;20230;-43
2023/11/13 02:26:16;;;;;;;213.40;54.58;;;;;;;;;;5022191;28;20440;-44
2023/11/13 02:28:42;;;;;;;214.77;57.65;;;;;;;;;;5024670;28;20190;-44
2023/11/13 02:31:08;;;;;;;213.02;54.45;;;;;;;;;;5024754;28;20198;-44
2023/11/13 02:33:34;;;;;;;213.13;54.45;;;;;;;;;;5022024;28;20193;-44
2023/11/13 02:36:00;;;;;;;217.97;59.70;;;;;;;;;;5021052;28;20225;-44
2023/11/13 02:38:26;;;;;;;213.20;54.88;;;;;;;;;;5013082;28;20572;-44
2023/11/13 02:40:52;;;;;;;212.93;54.20;;;;;;;;;;5024916;28;20213;-44
2023/11/13 02:43:18;;;;;;;214.43;56.03;;;;;;;;;;5019611;28;20470;-44
2023/11/13 02:45:44;;;;;;;214.07;55.38;;;;;;;;;;5019749;28;20181;-44
2023/11/13 02:48:10;;;;;;;216.20;57.17;;;;;;;;;;5023419;28;20704;-44
2023/11/13 02:50:36;;;;;;;217.47;58.53;;;;;;;;;;5024266;28;20439;-44
2023/11/13 02:53:02;;;;;;;214.75;55.17;;;;;;;;;;5022705;28;20464;-44
2023/11/13 02:55:28;;;;;;;215.07;57.40;;;;;;;;;;5025029;28;20724;-44
2023/11/13 02:57:54;;;;;;;212.00;54.10;;;;;;;;;;5023779;28;20465;-44
2023/11/13 03:00:21;;;;;;;214.38;55.30;;;;;;;;;;5017431;28;20420;-43
2023/11/13 03:02:48;;;;;;;214.30;54.95;;;;;;;;;;5024454;28;20184;-44
2023/11/13 03:05:16;;;;;;;216.60;57.10;;;;;;;;;;5021344;28;20186;-44
2023/11/13 03:07:43;;;;;;;217.23;58.33;;;;;;;;;;5023227;28;20228;-43
2023/11/13 03:10:09;;;;;;;211.40;53.75;;;;;;;;;;5022122;28;20666;-43
2023/11/13 03:12:35;;;;;;;213.98;54.42;;;;;;;;;;5022404;28;20197;-43
2023/11/13 03:15:01;;;;;;;217.90;59.70;;;;;;;;;;5022598;28;20238;-43
2023/11/13 03:17:27;;;;;;;211.20;53.75;;;;;;;;;;5016576;28;20193;-44
2023/11/13 03:19:53;;;;;;;214.57;56.70;;;;;;;;;;5024097;28;20662;-44
2023/11/13 03:22:19;;;;;;;215.13;56.27;;;;;;;;;;5023601;28;20252;-44
2023/11/13 03:24:46;;;;;;;218.47;58.03;;;;;;;;;;5030441;28;20399;-44
2023/11/13 03:27:12;;;;;;;213.32;54.63;;;;;;;;;;5012575;28;20501;-44
2023/11/13 03:29:38;;;;;;;217.50;60.20;;;;;;;;;;5029614;28;20628;-44
2023/11/13 03:32:04;;;;;;;215.00;56.63;;;;;;;;;;5018663;28;20594;-44
2023/11/13 03:34:30;;;;;;;214.55;55.83;;;;;;;;;;5021053;28;20193;-44
2023/11/13 03:36:57;;;;;;;216.52;58.38;;;;;;;;;;5025784;28;20247;-44
2023/11/13 03:39:23;;;;;;;214.60;55.85;;;;;;;;;;5010805;28;20182;-44
2023/11/13 03:41:49;;;;;;;214.40;54.63;;;;;;;;;;4992745;28;20178;-44
2023/11/13 03:44:16;;;;;;;214.43;55.33;;;;;;;;;;5009652;28;20200;-44
2023/11/13 03:46:42;;;;;;;215.13;55.28;;;;;;;;;;4998997;28;20426;-44
2023/11/13 03:49:10;;;;;;;218.60;57.83;;;;;;;;;;5001225;28;20602;-44
2023/11/13 03:51:36;;;;;;;217.35;57.13;;;;;;;;;;5006765;28;20429;-44
2023/11/13 03:54:01;;;;;;;215.73;57.03;;;;;;;;;;5000985;28;20211;-44
2023/11/13 03:56:28;;;;;;;215.47;54.07;;;;;;;;;;5011892;28;20433;-44
2023/11/13 03:58:55;;;;;;;222.95;59.90;;;;;;;;;;5011413;28;20409;-45
2023/11/13 04:01:21;;;;;;;219.63;57.70;;;;;;;;;;5011323;28;20653;-44
2023/11/13 04:03:47;;;;;;;219.05;56.08;;;;;;;;;;5011587;28;20189;-45
2023/11/13 04:06:13;;;;;;;223.63;60.00;;;;;;;;;;5011259;28;20748;-44
2023/11/13 04:08:39;;;;;;;218.68;56.03;;;;;;;;;;5011550;28;20185;-44
2023/11/13 04:11:05;;;;;;;221.07;59.00;;;;;;;;;;5011733;28;20179;-44
2023/11/13 04:13:32;;;;;;;216.32;54.55;;;;;;;;;;4995756;28;20288;-44
2023/11/13 04:16:02;;;;;;;215.02;55.03;;;;;;;;;;5004208;28;20314;-44
2023/11/13 04:18:28;;;;;;;217.68;57.50;;;;;;;;;;5002716;28;20176;-45
2023/11/13 04:20:55;;;;;;;219.17;58.27;;;;;;;;;;4996854;28;20195;-44
2023/11/13 04:23:21;;;;;;;222.25;61.10;;;;;;;;;;5010742;28;20402;-45
2023/11/13 04:25:47;;;;;;;217.85;55.60;;;;;;;;;;4992539;28;20203;-44
2023/11/13 04:28:14;;;;;;;218.67;57.50;;;;;;;;;;5008849;28;20210;-44
2023/11/13 04:30:40;;;;;;;220.45;59.88;;;;;;;;;;5001681;28;20905;-44
2023/11/13 04:33:06;;;;;;;220.23;58.63;;;;;;;;;;5011036;28;20222;-44
2023/11/13 04:35:32;;;;;;;221.60;58.60;;;;;;;;;;5011018;28;20262;-44
2023/11/13 04:37:58;;;;;;;218.87;58.07;;;;;;;;;;5011035;28;20770;-44
2023/11/13 04:40:26;;;;;;;222.30;61.13;;;;;;;;;;4991823;28;20415;-44
2023/11/13 04:42:52;;;;;;;218.70;55.50;;;;;;;;;;5008543;28;20406;-44
2023/11/13 04:45:17;;;;;;;221.13;58.20;;;;;;;;;;4999001;28;20283;-44
2023/11/13 04:47:43;;;;;;;221.00;58.90;;;;;;;;;;5000075;28;20443;-44
2023/11/13 04:50:09;;;;;;;221.90;59.93;;;;;;;;;;5006960;28;20419;-44
2023/11/13 04:52:35;;;;;;;220.40;58.47;;;;;;;;;;4992031;28;20408;-45
2023/11/13 04:55:01;;;;;;;219.27;57.80;;;;;;;;;;5011627;28;21084;-44
2023/11/13 04:57:27;;;;;;;219.03;59.27;;;;;;;;;;4995845;28;20470;-44
2023/11/13 04:59:53;;;;;;;218.20;55.90;;;;;;;;;;5003454;28;20443;-44
2023/11/13 05:02:19;;;;;;;218.68;55.53;;;;;;;;;;5003461;28;20407;-45
2023/11/13 05:04:47;;;;;;;222.25;59.03;;;;;;;;;;4995655;28;20182;-44
2023/11/13 05:07:13;;;;;;;219.15;58.38;;;;;;;;;;5011162;28;20669;-44
2023/11/13 05:09:39;;;;;;;217.00;55.87;;;;;;;;;;4991860;28;20179;-44
2023/11/13 05:12:05;;;;;;;218.67;55.97;;;;;;;;;;5007226;28;20431;-44
2023/11/13 05:14:31;;;;;;;219.70;56.65;;;;;;;;;;5000100;28;20461;-44
2023/11/13 05:16:57;;;;;;;218.10;56.00;;;;;;;;;;4999040;28;20195;-45
2023/11/13 05:19:23;;;;;;;219.75;57.60;;;;;;;;;;5007814;28;20506;-44
2023/11/13 05:21:51;;;;;;;220.30;57.30;;;;;;;;;;4991763;28;20182;-44
2023/11/13 05:24:17;;;;;;;215.25;52.70;;;;;;;;;;5010972;28;20179;-44
2023/11/13 05:26:43;;;;;;;218.85;55.28;;;;;;;;;;4995776;28;20228;-44
2023/11/13 05:29:09;;;;;;;221.13;57.03;;;;;;;;;;5004011;28;20188;-45
2023/11/13 05:31:34;;;;;;;217.60;54.97;;;;;;;;;;5007518;28;20717;-44
2023/11/13 05:34:00;;;;;;;216.00;53.70;;;;;;;;;;5007483;28;20465;-44
2023/11/13 05:36:26;;;;;;;218.60;56.88;;;;;;;;;;5014529;28;20419;-44
2023/11/13 05:38:53;;;;;;;218.43;55.53;;;;;;;;;;4995716;28;20263;-44
2023/11/13 05:41:20;;;;;;;219.05;54.90;;;;;;;;;;5009540;28;20403;-44
2023/11/13 05:43:47;;;;;;;221.90;57.10;;;;;;;;;;5003532;28;20686;-44
2023/11/13 05:46:15;;;;;;;224.32;58.95;;;;;;;;;;5001522;28;20606;-44
2023/11/13 05:48:41;;;;;;;217.88;53.90;;;;;;;;;;5011356;28;20652;-44
2023/11/13 05:51:07;;;;;;;220.47;55.53;;;;;;;;;;4994760;28;20252;-44
2023/11/13 05:53:33;;;;;;;220.47;57.47;;;;;;;;;;5012726;28;20457;-45
2023/11/13 05:55:59;;;;;;;220.43;55.97;;;;;;;;;;5013453;28;20433;-44
2023/11/13 05:58:25;;;;;;;219.77;56.43;;;;;;;;;;5013869;28;20666;-44
2023/11/13 06:00:51;;;;;;;221.07;56.60;;;;;;;;;;5007121;28;20423;-44
2023/11/13 06:03:17;;;;;;;219.63;55.00;;;;;;;;;;5010174;28;20851;-44
2023/11/13 06:05:43;;;;;;;218.77;54.23;;;;;;;;;;5014019;28;20175;-44
2023/11/13 06:08:09;;;;;;;220.53;55.33;;;;;;;;;;5013535;28;20804;-44
2023/11/13 06:10:35;;;;;;;221.00;56.08;;;;;;;;;;4999400;28;20455;-44
2023/11/13 06:13:02;;;;;;;219.20;53.73;;;;;;;;;;5010165;28;20215;-44
2023/11/13 06:15:28;;;;;;;220.95;56.20;;;;;;;;;;5013250;28;20910;-44
2023/11/13 06:17:54;;;;;;;218.17;55.77;;;;;;;;;;5011476;28;20172;-43
2023/11/13 06:20:20;;;;;;;219.43;55.50;;;;;;;;;;4994093;28;20439;-43
2023/11/13 06:22:47;;;;;;;219.77;55.73;;;;;;;;;;5011981;28;20415;-44
2023/11/13 06:25:13;;;;;;;219.93;55.40;;;;;;;;;;4999539;28;20415;-44
2023/11/13 06:27:40;;;;;;;219.07;54.45;;;;;;;;;;5001868;28;20307;-44
2023/11/13 06:30:09;;;;;;;215.70;53.45;;;;;;;;;;5022261;28;20184;-44
2023/11/13 06:32:36;;;;;;;216.77;54.55;;;;;;;;;;5015067;28;20176;-44
2023/11/13 06:35:02;;;;;;;217.35;53.88;;;;;;;;;;5024800;28;20225;-45
2023/11/13 06:37:28;;;;;;;216.75;54.50;;;;;;;;;;5015378;28;20192;-44
2023/11/13 06:39:54;;;;;;;218.57;54.90;;;;;;;;;;5022274;28;20278;-44
2023/11/13 06:42:20;;;;;;;219.37;55.50;;;;;;;;;;5021609;28;20466;-44
2023/11/13 06:44:46;;;;;;;217.77;54.10;;;;;;;;;;5022741;28;20420;-45
2023/11/13 06:47:12;;;;;;;217.23;53.23;;;;;;;;;;5017667;28;20953;-44
2023/11/13 06:49:38;;;;;;;219.23;54.47;;;;;;;;;;5023948;28;20804;-44
2023/11/13 06:52:08;;;;;;;222.25;57.53;;;;;;;;;;5020119;28;20300;-44
2023/11/13 06:54:34;;;;;;;219.75;56.00;;;;;;;;;;5023908;28;20195;-44
2023/11/13 06:57:00;;;;;;;221.80;57.75;;;;;;;;;;5021983;28;20192;-44
2023/11/13 06:59:26;;;;;;;220.03;55.27;;;;;;;;;;5023609;28;20203;-44
2023/11/13 07:01:52;;;;;;;217.47;53.37;;;;;;;;;;5021736;28;20452;-43
2023/11/13 07:04:18;;;;;;;218.75;54.15;;;;;;;;;;5021508;28;20427;-44
2023/11/13 07:06:45;;;;;;;218.35;55.65;;;;;;;;;;5026020;28;20736;-44
2023/11/13 07:09:11;;;;;;;218.70;55.38;;;;;;;;;;5020609;28;20279;-44
2023/11/13 07:11:42;;;;;;;222.00;57.40;;;;;;;;;;5022128;28;20558;-44
2023/11/13 07:14:12;;;;;;;221.48;58.30;;;;;;;;;;5022150;28;20194;-44
2023/11/13 07:16:40;;;;;;;218.82;55.42;;;;;;;;;;5014776;28;20282;-43
2023/11/13 07:19:07;;;;;;;222.32;56.85;;;;;;;;;;5021647;28;20185;-43
2023/11/13 07:21:33;;;;;;;219.95;55.60;;;;;;;;;;5025689;28;20191;-44
2023/11/13 07:23:59;;;;;;;218.35;54.38;;;;;;;;;;5021204;28;20175;-44
2023/11/13 07:26:26;;;;;;;221.57;56.97;;;;;;;;;;5019700;28;20195;-43
2023/11/13 07:28:53;;;;;;;223.45;58.55;;;;;;;;;;5018280;28;20188;-44
2023/11/13 07:31:20;;;;;;;218.43;53.85;;;;;;;;;;5020282;28;20180;-44
2023/11/13 07:33:46;;;;;;;220.45;55.67;;;;;;;;;;5020416;28;20196;-45
2023/11/13 07:36:13;;;;;;;218.80;54.05;;;;;;;;;;5020877;28;20196;-44
2023/11/13 07:38:42;;;;;;;219.93;55.97;;;;;;;;;;5023122;28;20559;-44
2023/11/13 07:41:11;;;;;;;217.68;53.22;;;;;;;;;;5023548;28;20241;-43
2023/11/13 07:43:40;;;;;;;224.77;58.38;;;;;;;;;;5013153;28;20267;-44
2023/11/13 07:46:09;;;;;;;220.82;56.58;;;;;;;;;;5011687;28;20594;-44
2023/11/13 07:48:36;;;;;;;222.80;57.58;;;;;;;;;;5010738;28;20275;-44
2023/11/13 07:51:02;;;;;;;219.35;55.47;;;;;;;;;;5019764;28;20188;-44
2023/11/13 07:53:29;;;;;;;221.65;55.80;;;;;;;;;;5011381;28;20214;-44
2023/11/13 07:55:55;;;;;;;220.43;55.25;;;;;;;;;;5006803;28;20561;-44
2023/11/13 07:58:21;;;;;;;225.35;59.35;;;;;;;;;;5020812;28;20172;-44
2023/11/13 08:00:47;;;;;;;223.33;58.10;;;;;;;;;;5011268;28;20609;-44
2023/11/13 08:03:16;;;;;;;225.77;60.47;;;;;;;;;;5011399;28;20421;-44
2023/11/13 08:05:42;;;;;;;227.95;61.47;;;;;;;;;;5010778;28;20186;-44
2023/11/13 08:08:13;;;;;;;227.60;60.13;;;;;;;;;;5010601;28;20242;-44
2023/11/13 08:10:39;;;;;;;226.30;59.28;;;;;;;;;;5011203;28;20691;-44
2023/11/13 08:13:05;;;;;;;223.00;59.00;;;;;;;;;;5011646;28;20208;-44
2023/11/13 08:15:32;;;;;;;219.37;55.47;;;;;;;;;;5011618;28;20172;-44
2023/11/13 08:17:58;;;;;;;222.50;56.95;;;;;;;;;;5011901;28;20582;-44
2023/11/13 08:20:26;;;;;;;222.93;59.30;;;;;;;;;;5014581;28;20251;-44
2023/11/13 08:22:52;;;;;;;226.13;62.10;;;;;;;;;;5016264;28;20187;-45
2023/11/13 08:25:19;;;;;;;223.65;58.75;;;;;;;;;;5014237;28;20200;-44
2023/11/13 08:27:46;;;;;;;223.02;58.58;;;;;;;;;;5012250;28;20197;-44
2023/11/13 08:30:14;;;;;;;224.82;62.40;;;;;;;;;;5021332;28;20695;-44
2023/11/13 08:32:43;;;;;;;221.40;56.53;;;;;;;;;;5023059;28;20167;-44
2023/11/13 08:35:12;;;;;;;223.35;58.03;;;;;;;;;;5021053;28;20183;-44
2023/11/13 08:37:38;;;;;;;224.57;60.70;;;;;;;;;;5021644;28;20203;-44
2023/11/13 08:40:05;;;;;;;225.88;63.20;;;;;;;;;;5021754;28;20724;-44
2023/11/13 08:42:31;;;;;;;223.85;61.83;;;;;;;;;;5016604;28;20693;-45
2023/11/13 08:44:57;;;;;;;221.07;57.38;;;;;;;;;;5014967;28;20183;-44
2023/11/13 08:47:23;;;;;;;219.73;55.08;;;;;;;;;;5007033;28;20687;-44
2023/11/13 08:49:49;;;;;;;221.57;55.28;;;;;;;;;;5019961;28;20862;-44
2023/11/13 08:52:15;;;;;;;224.33;59.60;;;;;;;;;;5022135;28;20172;-44
2023/11/13 08:54:41;;;;;;;222.93;58.87;;;;;;;;;;5013899;28;20458;-44
2023/11/13 08:57:07;;;;;;;222.63;58.07;;;;;;;;;;5019845;28;20949;-44
2023/11/13 08:59:34;;;;;;;228.60;60.45;;;;;;;;;;5024197;28;20406;-43
2023/11/13 09:02:05;;;;;;;222.73;58.80;;;;;;;;;;5030058;28;20856;-43
2023/11/13 09:04:32;;;;;;;222.73;60.00;;;;;;;;;;5028901;28;20182;-44
2023/11/13 09:06:58;;;;;;;221.10;56.25;;;;;;;;;;5017198;28;20199;-43
2023/11/13 09:09:26;;;;;;;228.07;63.00;;;;;;;;;;5034856;28;20171;-44
2023/11/13 09:11:53;;;;;;;220.98;57.65;;;;;;;;;;5016746;28;20469;-43
2023/11/13 09:14:22;;;;;;;222.80;57.85;;;;;;;;;;5029016;28;20191;-43
2023/11/13 09:16:48;;;;;;;223.52;59.70;;;;;;;;;;5024126;28;20230;-43
2023/11/13 09:19:14;;;;;;;221.27;58.50;;;;;;;;;;5021143;28;20215;-43
2023/11/13 09:21:40;;;;;;;220.67;57.67;;;;;;;;;;5032218;28;20398;-42
2023/11/13 09:24:09;;;;;;;221.67;58.50;;;;;;;;;;5015017;28;20462;-43
2023/11/13 09:26:35;;;;;;;222.57;59.20;;;;;;;;;;5033192;28;21007;-43
2023/11/13 09:29:01;;;;;;;222.30;59.43;;;;;;;;;;5020180;28;20303;-44
2023/11/13 09:31:27;;;;;;;223.50;61.33;;;;;;;;;;5024849;28;20456;-44
2023/11/13 09:33:53;;;;;;;219.00;56.58;;;;;;;;;;5022736;28;20200;-43
2023/11/13 09:36:19;;;;;;;222.87;59.90;;;;;;;;;;5016739;28;20703;-43
2023/11/13 09:38:45;;;;;;;221.57;60.00;;;;;;;;;;5034446;28;20437;-43
2023/11/13 09:41:14;;;;;;;222.80;60.37;;;;;;;;;;5016022;28;20639;-43
2023/11/13 09:43:41;;;;;;;221.85;59.35;;;;;;;;;;5028434;28;20410;-44
2023/11/13 09:46:09;;;;;;;224.10;59.30;;;;;;;;;;5022928;28;20705;-44
2023/11/13 09:48:55;;;;;;;226.45;67.53;;;;;;;;;;5008074;28;20432;-44
2023/11/13 09:51:24;;;;;;;223.93;63.65;;;;;;;;;;4999328;28;20722;-44
2023/11/13 09:53:51;;;;;;;228.48;68.18;;;;;;;;;;5012180;28;20280;-45
2023/11/13 09:56:18;;;;;;;220.85;59.22;;;;;;;;;;5013906;28;20176;-43
2023/11/13 09:58:44;;;;;;;224.80;59.20;;;;;;;;;;4996073;28;20176;-44
2023/11/13 10:01:12;;;;;;;222.40;61.78;;;;;;;;;;5007169;28;20674;-43
2023/11/13 10:03:38;;;;;;;223.15;60.72;;;;;;;;;;5004541;28;20600;-44
2023/11/13 10:06:07;;;;;;;221.70;61.67;;;;;;;;;;4999569;28;20669;-44
2023/11/13 10:08:40;;;;;;;225.13;61.92;;;;;;;;;;5012198;28;20168;-43
2023/11/13 10:11:08;;;;;;;225.32;65.78;;;;;;;;;;4997306;28;20184;-43
2023/11/13 10:13:35;;;;;;;223.70;63.67;;;;;;;;;;5008102;28;20203;-43
2023/11/13 10:16:20;;;;;;;222.90;63.33;;;;;;;;;;5012737;28;20192;-43
2023/11/13 10:18:47;;;;;;;224.20;64.45;;;;;;;;;;5013479;28;20183;-44
2023/11/13 10:21:35;;;;;;;224.95;64.90;;;;;;;;;;5012963;28;20177;-44
2023/11/13 10:24:19;;;;;;;222.85;61.90;;;;;;;;;;5013357;28;20667;-43
2023/11/13 10:26:55;;;;;;;227.18;67.35;;;;;;;;;;5006859;28;20212;-43
2023/11/13 10:29:27;;;;;;;221.63;59.20;;;;;;;;;;4998213;28;20226;-44
2023/11/13 10:32:01;;;;;;;221.93;59.72;;;;;;;;;;5013035;28;20183;-44
2023/11/13 10:34:41;;;;;;;222.88;61.70;;;;;;;;;;5010221;28;20191;-44
2023/11/13 10:37:08;;;;;;;221.18;58.55;;;;;;;;;;5013000;28;20188;-44
2023/11/13 10:39:36;;;;;;;230.00;64.78;;;;;;;;;;5011473;28;20195;-44
2023/11/13 10:42:02;;;;;;;220.27;59.70;;;;;;;;;;5011457;28;20184;-43
2023/11/13 10:44:30;;;;;;;222.40;61.03;;;;;;;;;;5012866;28;20188;-44
2023/11/13 10:46:56;;;;;;;224.00;64.47;;;;;;;;;;5009493;28;20215;-43
2023/11/13 10:49:21;;;;;;;222.45;61.70;;;;;;;;;;4993887;28;20629;-44
2023/11/13 10:51:49;;;;;;;222.33;62.10;;;;;;;;;;5012945;28;20184;-44
2023/11/13 10:54:15;;;;;;;223.63;63.22;;;;;;;;;;5007999;28;20537;-44
2023/11/13 10:56:46;;;;;;;220.73;60.25;;;;;;;;;;5012630;28;20184;-44
2023/11/13 10:59:12;;;;;;;222.55;63.75;;;;;;;;;;5004910;28;20283;-44
2023/11/13 11:01:43;;;;;;;223.23;62.50;;;;;;;;;;4997452;28;20291;-44
2023/11/13 11:04:10;;;;;;;221.05;60.28;;;;;;;;;;5012212;28;20699;-44
2023/11/13 11:06:39;;;;;;;226.25;65.43;;;;;;;;;;4993422;28;20189;-44
2023/11/13 11:09:07;;;;;;;223.18;62.75;;;;;;;;;;5010213;28;20172;-44
2023/11/13 11:11:36;;;;;;;225.90;65.57;;;;;;;;;;4999361;28;20173;-44
2023/11/13 11:14:06;;;;;;;220.80;60.80;;;;;;;;;;5002619;28;20218;-44
2023/11/13 11:16:36;;;;;;;221.43;59.80;;;;;;;;;;5012504;28;20621;-44
2023/11/13 11:19:21;;;;;;;226.30;65.95;;;;;;;;;;5010138;28;20199;-44
2023/11/13 11:21:58;;;;;;;223.27;61.92;;;;;;;;;;4993873;28;20179;-44
2023/11/13 11:24:28;;;;;;;223.40;62.13;;;;;;;;;;5012800;28;20164;-43
2023/11/13 11:26:58;;;;;;;222.50;61.00;;;;;;;;;;4992898;28;20573;-44
2023/11/13 11:29:50;;;;;;;223.07;60.25;;;;;;;;;;5008229;28;20230;-45
2023/11/13 11:32:18;;;;;;;221.55;59.10;;;;;;;;;;4995106;28;20189;-44
2023/11/13 11:34:44;;;;;;;222.75;60.53;;;;;;;;;;5011035;28;20268;-44
2023/11/13 11:37:13;;;;;;;223.88;60.83;;;;;;;;;;5009563;28;20196;-45
2023/11/13 11:39:49;;;;;;;226.68;61.05;;;;;;;;;;5008872;28;20550;-45
2023/11/13 11:42:27;;;;;;;228.15;65.03;;;;;;;;;;4992944;28;20215;-44
2023/11/13 11:44:59;;;;;;;221.30;59.30;;;;;;;;;;5012484;28;20160;-45
2023/11/13 11:47:26;;;;;;;224.25;61.65;;;;;;;;;;4993579;28;20196;-44
2023/11/13 11:49:56;;;;;;;227.18;62.25;;;;;;;;;;5006925;28;20177;-44
2023/11/13 11:52:41;;;;;;;228.45;64.00;;;;;;;;;;5010819;28;20554;-44
2023/11/13 11:55:12;;;;;;;226.07;60.13;;;;;;;;;;5010217;28;20295;-44
2023/11/13 11:57:39;;;;;;;221.48;56.60;;;;;;;;;;5011603;28;20200;-44
2023/11/13 12:00:05;;;;;;;224.98;61.10;;;;;;;;;;5009522;28;20183;-44
2023/11/13 12:02:32;;;;;;;226.73;62.88;;;;;;;;;;4996694;28;20737;-44
2023/11/13 12:05:00;;;;;;;226.60;61.92;;;;;;;;;;5011592;28;20196;-44
2023/11/13 12:07:26;;;;;;;225.27;60.90;;;;;;;;;;4997500;28;20190;-44
2023/11/13 12:09:53;;;;;;;229.40;63.33;;;;;;;;;;5002529;28;20185;-44
2023/11/13 12:12:19;;;;;;;226.60;61.45;;;;;;;;;;4998596;28;20657;-43
2023/11/13 12:14:45;;;;;;;226.80;63.78;;;;;;;;;;5009291;28;20322;-44
2023/11/13 12:17:12;;;;;;;228.33;64.20;;;;;;;;;;4992149;28;20220;-44
2023/11/13 12:19:39;;;;;;;226.73;59.75;;;;;;;;;;5010329;28;20813;-44
2023/11/13 12:22:06;;;;;;;222.23;56.38;;;;;;;;;;4997383;28;20173;-45
2023/11/13 12:24:35;;;;;;;226.93;61.58;;;;;;;;;;5005527;28;20283;-44
2023/11/13 12:27:04;;;;;;;228.77;64.97;;;;;;;;;;5009604;28;20198;-44
2023/11/13 12:29:30;;;;;;;224.23;59.50;;;;;;;;;;5009435;28;20176;-45
2023/11/13 12:31:57;;;;;;;229.97;65.73;;;;;;;;;;5010342;28;20177;-44
2023/11/13 12:34:23;;;;;;;225.98;63.58;;;;;;;;;;5010274;28;20473;-44
2023/11/13 12:36:49;;;;;;;225.05;61.38;;;;;;;;;;5005702;28;20197;-44
2023/11/13 12:39:19;;;;;;;227.02;64.57;;;;;;;;;;5007168;28;20182;-45
2023/11/13 12:41:46;;;;;;;224.93;63.58;;;;;;;;;;5013402;28;20524;-45
2023/11/13 12:44:12;;;;;;;224.82;62.58;;;;;;;;;;5014333;28;20224;-45
2023/11/13 12:46:42;;;;;;;226.00;64.10;;;;;;;;;;5014847;28;20212;-44
2023/11/13 12:49:11;;;;;;;227.82;64.95;;;;;;;;;;5014616;28;20173;-44
2023/11/13 12:51:40;;;;;;;228.70;64.00;;;;;;;;;;5013030;28;20839;-44
2023/11/13 12:54:14;;;;;;;222.82;61.78;;;;;;;;;;5001163;28;20203;-44
2023/11/13 12:56:47;;;;;;;225.95;62.50;;;;;;;;;;5004578;28;20191;-44
2023/11/13 12:59:15;;;;;;;224.35;62.10;;;;;;;;;;5009125;28;20194;-45
2023/11/13 13:01:41;;;;;;;227.82;67.30;;;;;;;;;;4997965;28;20178;-44
2023/11/13 13:04:07;;;;;;;227.17;66.20;;;;;;;;;;5015295;28;20652;-44
2023/11/13 13:06:37;;;;;;;224.30;65.15;;;;;;;;;;4996814;28;20429;-44
2023/11/13 13:09:05;;;;;;;224.88;64.50;;;;;;;;;;5009861;28;20251;-44
2023/11/13 13:11:33;;;;;;;225.70;64.15;;;;;;;;;;5003960;28;20176;-45
2023/11/13 13:14:01;;;;;;;225.52;62.00;;;;;;;;;;5002169;28;20202;-44
2023/11/13 13:16:27;;;;;;;224.48;63.15;;;;;;;;;;5011685;28;20190;-44
2023/11/13 13:18:53;;;;;;;228.87;66.97;;;;;;;;;;4995372;28;20615;-45
2023/11/13 13:21:22;;;;;;;226.27;64.50;;;;;;;;;;5013835;28;20900;-44
2023/11/13 13:23:49;;;;;;;228.57;67.10;;;;;;;;;;4999574;28;20173;-45
2023/11/13 13:26:15;;;;;;;224.68;63.30;;;;;;;;;;5006272;28;20305;-44
2023/11/13 13:28:41;;;;;;;226.93;67.03;;;;;;;;;;5007492;28;20186;-44
2023/11/13 13:31:10;;;;;;;223.18;61.40;;;;;;;;;;4997773;28;20319;-45
2023/11/13 13:33:36;;;;;;;222.75;59.80;;;;;;;;;;5014587;28;20203;-44
2023/11/13 13:36:04;;;;;;;226.70;66.13;;;;;;;;;;4995223;28;20206;-44
2023/11/13 13:38:30;;;;;;;228.85;70.53;;;;;;;;;;5010033;28;20469;-44
2023/11/13 13:40:56;;;;;;;227.33;66.57;;;;;;;;;;5002826;28;20606;-44
2023/11/13 13:43:22;;;;;;;227.20;66.30;;;;;;;;;;5002141;28;20411;-44
2023/11/13 13:45:50;;;;;;;226.90;63.92;;;;;;;;;;5010788;28;20816;-44
2023/11/13 13:48:16;;;;;;;228.85;65.93;;;;;;;;;;4995411;28;20260;-44
2023/11/13 13:50:42;;;;;;;228.90;64.80;;;;;;;;;;5010967;28;20258;-44
2023/11/13 13:53:14;;;;;;;226.20;62.80;;;;;;;;;;5013611;28;20523;-43
2023/11/13 13:55:42;;;;;;;224.35;61.28;;;;;;;;;;5013661;28;20413;-43
2023/11/13 13:58:08;;;;;;;225.20;61.20;;;;;;;;;;5013581;28;20239;-43
2023/11/13 14:00:36;;;;;;;223.30;60.70;;;;;;;;;;5013050;28;20429;-43
2023/11/13 14:03:05;;;;;;;223.65;62.05;;;;;;;;;;5013411;28;20834;-44
2023/11/13 14:05:32;;;;;;;222.93;60.77;;;;;;;;;;5019971;28;20221;-43